sensor_id;sensor_type;location;lat;lon;timestamp;P1;durP1;ratioP1;P2;durP2;ratioP2
19456;SDS011;9867;48.094;11.478;2023-01-26T00:02:08;14.90;;;11.20;;
19456;SDS011;9867;48.094;11.478;2023-01-26T00:04:36;16.47;;;11.90;;
19456;SDS011;9867;48.094;11.478;2023-01-26T00:07:02;15.67;;;12.03;;
19456;SDS011;9867;48.094;11.478;2023-01-26T00:09:29;15.30;;;12.13;;
19456;SDS011;9867;48.094;11.478;2023-01-26T00:11:55;17.00;;;12.47;;
19456;SDS011;9867;48.094;11.478;2023-01-26T00:14:22;17.10;;;12.93;;
19456;SDS011;9867;48.094;11.478;2023-01-26T00:16:48;18.27;;;12.30;;
19456;SDS011;9867;48.094;11.478;2023-01-26T00:19:14;17.77;;;12.27;;
19456;SDS011;9867;48.094;11.478;2023-01-26T00:21:41;13.80;;;11.63;;
19456;SDS011;9867;48.094;11.478;2023-01-26T00:24:08;17.93;;;11.93;;
19456;SDS011;9867;48.094;11.478;2023-01-26T00:26:34;15.20;;;11.60;;
19456;SDS011;9867;48.094;11.478;2023-01-26T00:29:01;16.40;;;11.43;;
19456;SDS011;9867;48.094;11.478;2023-01-26T00:31:27;17.13;;;11.47;;
19456;SDS011;9867;48.094;11.478;2023-01-26T00:33:54;16.47;;;12.43;;
19456;SDS011;9867;48.094;11.478;2023-01-26T00:36:22;17.13;;;12.50;;
19456;SDS011;9867;48.094;11.478;2023-01-26T00:38:49;14.80;;;11.70;;
19456;SDS011;9867;48.094;11.478;2023-01-26T00:41:16;14.80;;;11.07;;
19456;SDS011;9867;48.094;11.478;2023-01-26T00:44:00;16.43;;;12.00;;
19456;SDS011;9867;48.094;11.478;2023-01-26T00:46:27;15.10;;;11.60;;
19456;SDS011;9867;48.094;11.478;2023-01-26T00:48:54;15.23;;;11.60;;
19456;SDS011;9867;48.094;11.478;2023-01-26T00:51:21;14.67;;;11.90;;
19456;SDS011;9867;48.094;11.478;2023-01-26T00:53:47;14.60;;;11.73;;
19456;SDS011;9867;48.094;11.478;2023-01-26T00:56:15;17.23;;;12.47;;
19456;SDS011;9867;48.094;11.478;2023-01-26T00:58:41;15.63;;;11.83;;
19456;SDS011;9867;48.094;11.478;2023-01-26T01:01:09;14.67;;;11.37;;
19456;SDS011;9867;48.094;11.478;2023-01-26T01:03:39;14.03;;;11.23;;
19456;SDS011;9867;48.094;11.478;2023-01-26T01:06:06;14.90;;;10.93;;
19456;SDS011;9867;48.094;11.478;2023-01-26T01:08:35;15.30;;;12.30;;
19456;SDS011;9867;48.094;11.478;2023-01-26T01:11:04;16.77;;;12.70;;
19456;SDS011;9867;48.094;11.478;2023-01-26T01:13:31;17.50;;;13.90;;
19456;SDS011;9867;48.094;11.478;2023-01-26T01:15:58;19.30;;;12.90;;
19456;SDS011;9867;48.094;11.478;2023-01-26T01:18:24;18.37;;;13.40;;
19456;SDS011;9867;48.094;11.478;2023-01-26T01:20:51;16.07;;;12.60;;
19456;SDS011;9867;48.094;11.478;2023-01-26T01:23:17;20.83;;;12.50;;
19456;SDS011;9867;48.094;11.478;2023-01-26T01:25:44;18.63;;;13.83;;
19456;SDS011;9867;48.094;11.478;2023-01-26T01:28:11;17.43;;;13.03;;
19456;SDS011;9867;48.094;11.478;2023-01-26T01:30:38;17.23;;;13.43;;
19456;SDS011;9867;48.094;11.478;2023-01-26T01:33:04;16.87;;;12.93;;
19456;SDS011;9867;48.094;11.478;2023-01-26T01:35:31;19.30;;;13.13;;
19456;SDS011;9867;48.094;11.478;2023-01-26T01:38:00;16.93;;;13.30;;
19456;SDS011;9867;48.094;11.478;2023-01-26T01:40:27;17.43;;;12.50;;
19456;SDS011;9867;48.094;11.478;2023-01-26T01:42:54;17.43;;;12.10;;
19456;SDS011;9867;48.094;11.478;2023-01-26T01:45:32;17.67;;;12.73;;
19456;SDS011;9867;48.094;11.478;2023-01-26T01:48:05;16.07;;;12.67;;
19456;SDS011;9867;48.094;11.478;2023-01-26T01:50:38;15.10;;;11.43;;
19456;SDS011;9867;48.094;11.478;2023-01-26T01:53:05;16.50;;;12.57;;
19456;SDS011;9867;48.094;11.478;2023-01-26T01:55:34;17.97;;;12.70;;
19456;SDS011;9867;48.094;11.478;2023-01-26T01:58:02;17.10;;;12.90;;
19456;SDS011;9867;48.094;11.478;2023-01-26T02:00:30;16.60;;;12.57;;
19456;SDS011;9867;48.094;11.478;2023-01-26T02:02:58;16.63;;;12.33;;
19456;SDS011;9867;48.094;11.478;2023-01-26T02:05:42;18.80;;;13.43;;
19456;SDS011;9867;48.094;11.478;2023-01-26T02:08:19;17.03;;;12.20;;
19456;SDS011;9867;48.094;11.478;2023-01-26T02:10:49;16.07;;;12.40;;
19456;SDS011;9867;48.094;11.478;2023-01-26T02:13:19;17.90;;;13.60;;
19456;SDS011;9867;48.094;11.478;2023-01-26T02:15:48;17.80;;;13.13;;
19456;SDS011;9867;48.094;11.478;2023-01-26T02:18:15;19.80;;;13.53;;
19456;SDS011;9867;48.094;11.478;2023-01-26T02:20:42;18.77;;;14.70;;
19456;SDS011;9867;48.094;11.478;2023-01-26T02:23:16;19.47;;;14.93;;
19456;SDS011;9867;48.094;11.478;2023-01-26T02:25:57;17.77;;;13.33;;
19456;SDS011;9867;48.094;11.478;2023-01-26T02:28:33;19.53;;;13.97;;
19456;SDS011;9867;48.094;11.478;2023-01-26T02:31:00;19.63;;;14.57;;
19456;SDS011;9867;48.094;11.478;2023-01-26T02:33:29;20.30;;;13.83;;
19456;SDS011;9867;48.094;11.478;2023-01-26T02:36:00;19.37;;;14.03;;
19456;SDS011;9867;48.094;11.478;2023-01-26T02:38:30;20.20;;;14.07;;
19456;SDS011;9867;48.094;11.478;2023-01-26T02:41:08;19.20;;;14.10;;
19456;SDS011;9867;48.094;11.478;2023-01-26T02:43:38;19.93;;;13.50;;
19456;SDS011;9867;48.094;11.478;2023-01-26T02:46:05;18.40;;;14.33;;
19456;SDS011;9867;48.094;11.478;2023-01-26T02:48:36;17.30;;;12.53;;
19456;SDS011;9867;48.094;11.478;2023-01-26T02:51:21;17.93;;;13.80;;
19456;SDS011;9867;48.094;11.478;2023-01-26T02:53:48;18.17;;;13.77;;
19456;SDS011;9867;48.094;11.478;2023-01-26T02:56:16;17.60;;;12.77;;
19456;SDS011;9867;48.094;11.478;2023-01-26T02:58:42;20.57;;;13.20;;
19456;SDS011;9867;48.094;11.478;2023-01-26T03:01:09;17.40;;;13.80;;
19456;SDS011;9867;48.094;11.478;2023-01-26T03:03:45;16.10;;;12.93;;
19456;SDS011;9867;48.094;11.478;2023-01-26T03:06:12;19.97;;;14.07;;
19456;SDS011;9867;48.094;11.478;2023-01-26T03:08:39;18.53;;;14.00;;
19456;SDS011;9867;48.094;11.478;2023-01-26T03:11:06;21.20;;;14.70;;
19456;SDS011;9867;48.094;11.478;2023-01-26T03:13:34;21.93;;;15.23;;
19456;SDS011;9867;48.094;11.478;2023-01-26T03:16:01;20.80;;;15.43;;
19456;SDS011;9867;48.094;11.478;2023-01-26T03:18:32;21.57;;;15.10;;
19456;SDS011;9867;48.094;11.478;2023-01-26T03:21:20;21.70;;;15.40;;
19456;SDS011;9867;48.094;11.478;2023-01-26T03:24:07;22.47;;;14.93;;
19456;SDS011;9867;48.094;11.478;2023-01-26T03:27:07;21.10;;;15.13;;
19456;SDS011;9867;48.094;11.478;2023-01-26T03:29:57;22.03;;;15.83;;
19456;SDS011;9867;48.094;11.478;2023-01-26T03:32:24;28.17;;;17.93;;
19456;SDS011;9867;48.094;11.478;2023-01-26T03:34:52;23.47;;;16.70;;
19456;SDS011;9867;48.094;11.478;2023-01-26T03:37:18;24.53;;;17.97;;
19456;SDS011;9867;48.094;11.478;2023-01-26T03:39:55;24.03;;;16.47;;
19456;SDS011;9867;48.094;11.478;2023-01-26T03:42:41;24.97;;;17.03;;
19456;SDS011;9867;48.094;11.478;2023-01-26T03:45:28;28.13;;;17.40;;
19456;SDS011;9867;48.094;11.478;2023-01-26T03:48:13;22.27;;;16.13;;
19456;SDS011;9867;48.094;11.478;2023-01-26T03:50:59;27.70;;;18.10;;
19456;SDS011;9867;48.094;11.478;2023-01-26T03:53:44;27.33;;;17.90;;
19456;SDS011;9867;48.094;11.478;2023-01-26T03:56:29;25.50;;;16.97;;
19456;SDS011;9867;48.094;11.478;2023-01-26T03:59:02;24.13;;;16.90;;
19456;SDS011;9867;48.094;11.478;2023-01-26T04:01:34;25.23;;;16.03;;
19456;SDS011;9867;48.094;11.478;2023-01-26T04:04:01;24.60;;;17.13;;
19456;SDS011;9867;48.094;11.478;2023-01-26T04:06:47;24.77;;;17.27;;
19456;SDS011;9867;48.094;11.478;2023-01-26T04:09:33;25.13;;;17.47;;
19456;SDS011;9867;48.094;11.478;2023-01-26T04:12:01;25.03;;;16.50;;
19456;SDS011;9867;48.094;11.478;2023-01-26T04:14:29;23.93;;;16.60;;
19456;SDS011;9867;48.094;11.478;2023-01-26T04:17:22;22.60;;;16.57;;
19456;SDS011;9867;48.094;11.478;2023-01-26T04:20:07;25.10;;;17.67;;
19456;SDS011;9867;48.094;11.478;2023-01-26T04:22:52;24.23;;;17.97;;
19456;SDS011;9867;48.094;11.478;2023-01-26T04:25:20;27.53;;;17.97;;
19456;SDS011;9867;48.094;11.478;2023-01-26T04:27:47;25.57;;;17.73;;
19456;SDS011;9867;48.094;11.478;2023-01-26T04:30:15;25.77;;;17.43;;
19456;SDS011;9867;48.094;11.478;2023-01-26T04:32:43;26.80;;;17.60;;
19456;SDS011;9867;48.094;11.478;2023-01-26T04:35:10;25.87;;;18.03;;
19456;SDS011;9867;48.094;11.478;2023-01-26T04:37:38;21.97;;;14.03;;
19456;SDS011;9867;48.094;11.478;2023-01-26T04:40:05;17.13;;;11.50;;
19456;SDS011;9867;48.094;11.478;2023-01-26T04:42:34;15.10;;;11.10;;
19456;SDS011;9867;48.094;11.478;2023-01-26T04:45:02;14.37;;;10.50;;
19456;SDS011;9867;48.094;11.478;2023-01-26T04:47:30;18.00;;;13.07;;
19456;SDS011;9867;48.094;11.478;2023-01-26T04:49:57;22.97;;;15.73;;
19456;SDS011;9867;48.094;11.478;2023-01-26T04:52:23;26.57;;;18.13;;
19456;SDS011;9867;48.094;11.478;2023-01-26T04:54:50;26.73;;;18.03;;
19456;SDS011;9867;48.094;11.478;2023-01-26T04:57:16;21.87;;;13.93;;
19456;SDS011;9867;48.094;11.478;2023-01-26T04:59:47;16.97;;;13.23;;
19456;SDS011;9867;48.094;11.478;2023-01-26T05:02:14;15.57;;;12.33;;
19456;SDS011;9867;48.094;11.478;2023-01-26T05:04:40;17.67;;;13.00;;
19456;SDS011;9867;48.094;11.478;2023-01-26T05:07:08;15.13;;;11.83;;
19456;SDS011;9867;48.094;11.478;2023-01-26T05:09:35;14.50;;;11.47;;
19456;SDS011;9867;48.094;11.478;2023-01-26T05:12:34;15.07;;;10.50;;
19456;SDS011;9867;48.094;11.478;2023-01-26T05:15:27;12.83;;;9.10;;
19456;SDS011;9867;48.094;11.478;2023-01-26T05:18:05;12.33;;;9.30;;
19456;SDS011;9867;48.094;11.478;2023-01-26T05:20:52;12.20;;;9.40;;
19456;SDS011;9867;48.094;11.478;2023-01-26T05:23:25;9.87;;;7.93;;
19456;SDS011;9867;48.094;11.478;2023-01-26T05:26:30;11.53;;;8.13;;
19456;SDS011;9867;48.094;11.478;2023-01-26T05:29:04;11.30;;;8.70;;
19456;SDS011;9867;48.094;11.478;2023-01-26T05:31:32;12.13;;;9.97;;
19456;SDS011;9867;48.094;11.478;2023-01-26T05:33:59;10.87;;;8.20;;
19456;SDS011;9867;48.094;11.478;2023-01-26T05:36:25;10.40;;;8.33;;
19456;SDS011;9867;48.094;11.478;2023-01-26T05:38:52;13.40;;;9.13;;
19456;SDS011;9867;48.094;11.478;2023-01-26T05:41:22;11.30;;;9.33;;
19456;SDS011;9867;48.094;11.478;2023-01-26T05:44:00;9.07;;;7.60;;
19456;SDS011;9867;48.094;11.478;2023-01-26T05:46:35;10.43;;;8.20;;
19456;SDS011;9867;48.094;11.478;2023-01-26T05:49:01;8.40;;;7.50;;
19456;SDS011;9867;48.094;11.478;2023-01-26T05:51:28;8.60;;;7.70;;
19456;SDS011;9867;48.094;11.478;2023-01-26T05:53:55;9.80;;;8.10;;
19456;SDS011;9867;48.094;11.478;2023-01-26T05:56:23;8.97;;;7.33;;
19456;SDS011;9867;48.094;11.478;2023-01-26T05:58:55;11.27;;;7.93;;
19456;SDS011;9867;48.094;11.478;2023-01-26T06:01:22;8.87;;;7.47;;
19456;SDS011;9867;48.094;11.478;2023-01-26T06:03:55;11.77;;;7.90;;
19456;SDS011;9867;48.094;11.478;2023-01-26T06:06:22;8.87;;;7.83;;
19456;SDS011;9867;48.094;11.478;2023-01-26T06:08:56;12.27;;;8.03;;
19456;SDS011;9867;48.094;11.478;2023-01-26T06:11:30;10.17;;;7.63;;
19456;SDS011;9867;48.094;11.478;2023-01-26T06:14:20;10.40;;;7.60;;
19456;SDS011;9867;48.094;11.478;2023-01-26T06:16:46;9.77;;;7.80;;
19456;SDS011;9867;48.094;11.478;2023-01-26T06:19:13;10.90;;;8.50;;
19456;SDS011;9867;48.094;11.478;2023-01-26T06:21:43;14.40;;;8.37;;
19456;SDS011;9867;48.094;11.478;2023-01-26T06:24:11;8.17;;;7.30;;
19456;SDS011;9867;48.094;11.478;2023-01-26T06:26:39;7.53;;;6.17;;
19456;SDS011;9867;48.094;11.478;2023-01-26T06:29:05;9.23;;;7.17;;
19456;SDS011;9867;48.094;11.478;2023-01-26T06:31:34;9.60;;;7.80;;
19456;SDS011;9867;48.094;11.478;2023-01-26T06:34:03;8.97;;;7.40;;
19456;SDS011;9867;48.094;11.478;2023-01-26T06:36:31;9.83;;;7.40;;
19456;SDS011;9867;48.094;11.478;2023-01-26T06:38:59;10.60;;;7.50;;
19456;SDS011;9867;48.094;11.478;2023-01-26T06:41:27;9.53;;;7.20;;
19456;SDS011;9867;48.094;11.478;2023-01-26T06:43:54;9.77;;;8.17;;
19456;SDS011;9867;48.094;11.478;2023-01-26T06:46:20;11.17;;;8.20;;
19456;SDS011;9867;48.094;11.478;2023-01-26T06:48:48;9.37;;;7.60;;
19456;SDS011;9867;48.094;11.478;2023-01-26T06:54:17;8.57;;;7.20;;
19456;SDS011;9867;48.094;11.478;2023-01-26T06:57:03;8.50;;;7.23;;
19456;SDS011;9867;48.094;11.478;2023-01-26T06:59:39;12.50;;;8.33;;
19456;SDS011;9867;48.094;11.478;2023-01-26T07:02:22;8.53;;;6.90;;
19456;SDS011;9867;48.094;11.478;2023-01-26T07:04:49;9.03;;;7.63;;
19456;SDS011;9867;48.094;11.478;2023-01-26T07:07:15;11.83;;;7.93;;
19456;SDS011;9867;48.094;11.478;2023-01-26T07:09:42;10.03;;;7.63;;
19456;SDS011;9867;48.094;11.478;2023-01-26T07:12:09;11.50;;;8.20;;
19456;SDS011;9867;48.094;11.478;2023-01-26T07:14:36;11.77;;;8.20;;
19456;SDS011;9867;48.094;11.478;2023-01-26T07:17:02;12.70;;;8.37;;
19456;SDS011;9867;48.094;11.478;2023-01-26T07:19:29;10.73;;;8.57;;
19456;SDS011;9867;48.094;11.478;2023-01-26T07:22:00;9.83;;;7.17;;
19456;SDS011;9867;48.094;11.478;2023-01-26T07:24:27;11.70;;;7.77;;
19456;SDS011;9867;48.094;11.478;2023-01-26T07:27:01;9.40;;;8.17;;
19456;SDS011;9867;48.094;11.478;2023-01-26T07:29:28;9.57;;;7.77;;
19456;SDS011;9867;48.094;11.478;2023-01-26T07:31:54;10.23;;;7.90;;
19456;SDS011;9867;48.094;11.478;2023-01-26T07:34:21;10.53;;;8.10;;
19456;SDS011;9867;48.094;11.478;2023-01-26T07:36:50;9.23;;;7.63;;
19456;SDS011;9867;48.094;11.478;2023-01-26T07:39:16;10.77;;;8.23;;
19456;SDS011;9867;48.094;11.478;2023-01-26T07:41:43;11.07;;;8.67;;
19456;SDS011;9867;48.094;11.478;2023-01-26T07:44:37;9.47;;;7.43;;
19456;SDS011;9867;48.094;11.478;2023-01-26T07:47:04;10.50;;;7.93;;
19456;SDS011;9867;48.094;11.478;2023-01-26T07:49:31;10.07;;;7.60;;
19456;SDS011;9867;48.094;11.478;2023-01-26T07:51:58;7.80;;;6.97;;
19456;SDS011;9867;48.094;11.478;2023-01-26T07:54:24;9.70;;;7.20;;
19456;SDS011;9867;48.094;11.478;2023-01-26T07:56:51;10.83;;;7.67;;
19456;SDS011;9867;48.094;11.478;2023-01-26T07:59:19;10.40;;;7.60;;
19456;SDS011;9867;48.094;11.478;2023-01-26T08:01:47;11.40;;;6.30;;
19456;SDS011;9867;48.094;11.478;2023-01-26T08:04:14;9.27;;;6.57;;
19456;SDS011;9867;48.094;11.478;2023-01-26T08:06:41;8.00;;;6.63;;
19456;SDS011;9867;48.094;11.478;2023-01-26T08:09:08;10.40;;;7.23;;
19456;SDS011;9867;48.094;11.478;2023-01-26T08:11:34;10.30;;;7.90;;
19456;SDS011;9867;48.094;11.478;2023-01-26T08:14:01;9.00;;;7.60;;
19456;SDS011;9867;48.094;11.478;2023-01-26T08:16:28;12.43;;;9.63;;
19456;SDS011;9867;48.094;11.478;2023-01-26T08:18:55;11.37;;;8.93;;
19456;SDS011;9867;48.094;11.478;2023-01-26T08:21:21;11.83;;;8.97;;
19456;SDS011;9867;48.094;11.478;2023-01-26T08:23:48;12.40;;;10.33;;
19456;SDS011;9867;48.094;11.478;2023-01-26T08:26:15;13.20;;;10.40;;
19456;SDS011;9867;48.094;11.478;2023-01-26T08:28:43;13.43;;;10.97;;
19456;SDS011;9867;48.094;11.478;2023-01-26T08:31:10;13.70;;;10.90;;
19456;SDS011;9867;48.094;11.478;2023-01-26T08:33:39;15.80;;;11.57;;
19456;SDS011;9867;48.094;11.478;2023-01-26T08:36:08;14.60;;;11.50;;
19456;SDS011;9867;48.094;11.478;2023-01-26T08:38:37;15.53;;;11.53;;
19456;SDS011;9867;48.094;11.478;2023-01-26T08:41:04;15.73;;;11.27;;
19456;SDS011;9867;48.094;11.478;2023-01-26T08:43:31;21.13;;;12.57;;
19456;SDS011;9867;48.094;11.478;2023-01-26T08:45:57;15.73;;;11.67;;
19456;SDS011;9867;48.094;11.478;2023-01-26T08:48:24;15.17;;;11.27;;
19456;SDS011;9867;48.094;11.478;2023-01-26T08:50:52;13.43;;;9.93;;
19456;SDS011;9867;48.094;11.478;2023-01-26T08:53:19;16.80;;;12.90;;
19456;SDS011;9867;48.094;11.478;2023-01-26T08:55:46;17.07;;;13.10;;
19456;SDS011;9867;48.094;11.478;2023-01-26T08:58:13;18.13;;;12.50;;
19456;SDS011;9867;48.094;11.478;2023-01-26T09:00:39;20.33;;;13.70;;
19456;SDS011;9867;48.094;11.478;2023-01-26T09:03:06;20.30;;;13.23;;
19456;SDS011;9867;48.094;11.478;2023-01-26T09:05:34;19.13;;;14.50;;
19456;SDS011;9867;48.094;11.478;2023-01-26T09:08:02;20.97;;;14.47;;
19456;SDS011;9867;48.094;11.478;2023-01-26T09:10:30;18.77;;;14.30;;
19456;SDS011;9867;48.094;11.478;2023-01-26T09:12:57;21.03;;;14.60;;
19456;SDS011;9867;48.094;11.478;2023-01-26T09:15:24;21.70;;;14.80;;
19456;SDS011;9867;48.094;11.478;2023-01-26T09:17:50;20.93;;;14.53;;
19456;SDS011;9867;48.094;11.478;2023-01-26T09:20:17;22.33;;;15.27;;
19456;SDS011;9867;48.094;11.478;2023-01-26T09:22:44;19.10;;;14.33;;
19456;SDS011;9867;48.094;11.478;2023-01-26T09:25:11;21.00;;;15.07;;
19456;SDS011;9867;48.094;11.478;2023-01-26T09:27:38;21.37;;;14.97;;
19456;SDS011;9867;48.094;11.478;2023-01-26T09:30:06;19.33;;;13.83;;
19456;SDS011;9867;48.094;11.478;2023-01-26T09:32:33;21.83;;;15.20;;
19456;SDS011;9867;48.094;11.478;2023-01-26T09:35:00;22.77;;;14.30;;
19456;SDS011;9867;48.094;11.478;2023-01-26T09:37:26;22.37;;;15.40;;
19456;SDS011;9867;48.094;11.478;2023-01-26T09:39:53;20.23;;;14.17;;
19456;SDS011;9867;48.094;11.478;2023-01-26T09:42:31;21.90;;;15.40;;
19456;SDS011;9867;48.094;11.478;2023-01-26T09:45:11;20.50;;;14.27;;
19456;SDS011;9867;48.094;11.478;2023-01-26T09:47:52;21.70;;;15.27;;
19456;SDS011;9867;48.094;11.478;2023-01-26T09:50:30;18.83;;;13.43;;
19456;SDS011;9867;48.094;11.478;2023-01-26T09:53:03;20.43;;;13.73;;
19456;SDS011;9867;48.094;11.478;2023-01-26T09:55:38;19.87;;;13.87;;
19456;SDS011;9867;48.094;11.478;2023-01-26T09:58:08;20.83;;;13.67;;
19456;SDS011;9867;48.094;11.478;2023-01-26T10:00:41;22.33;;;14.70;;
19456;SDS011;9867;48.094;11.478;2023-01-26T10:03:13;19.20;;;13.37;;
19456;SDS011;9867;48.094;11.478;2023-01-26T10:05:49;18.03;;;13.17;;
19456;SDS011;9867;48.094;11.478;2023-01-26T10:08:40;21.17;;;15.10;;
19456;SDS011;9867;48.094;11.478;2023-01-26T10:11:11;18.40;;;13.63;;
19456;SDS011;9867;48.094;11.478;2023-01-26T10:13:44;20.23;;;14.43;;
19456;SDS011;9867;48.094;11.478;2023-01-26T10:16:18;19.17;;;14.30;;
19456;SDS011;9867;48.094;11.478;2023-01-26T10:18:48;18.40;;;14.00;;
19456;SDS011;9867;48.094;11.478;2023-01-26T10:21:20;21.97;;;14.20;;
19456;SDS011;9867;48.094;11.478;2023-01-26T10:23:50;18.27;;;12.97;;
19456;SDS011;9867;48.094;11.478;2023-01-26T10:26:18;19.87;;;15.20;;
19456;SDS011;9867;48.094;11.478;2023-01-26T10:28:47;19.37;;;13.60;;
19456;SDS011;9867;48.094;11.478;2023-01-26T10:31:21;19.53;;;13.20;;
19456;SDS011;9867;48.094;11.478;2023-01-26T10:33:51;18.87;;;13.13;;
19456;SDS011;9867;48.094;11.478;2023-01-26T10:36:20;17.67;;;13.13;;
19456;SDS011;9867;48.094;11.478;2023-01-26T10:38:46;17.23;;;12.43;;
19456;SDS011;9867;48.094;11.478;2023-01-26T10:41:24;18.27;;;12.07;;
19456;SDS011;9867;48.094;11.478;2023-01-26T10:43:52;15.57;;;11.27;;
19456;SDS011;9867;48.094;11.478;2023-01-26T10:46:25;18.37;;;11.87;;
19456;SDS011;9867;48.094;11.478;2023-01-26T10:48:55;18.57;;;12.17;;
19456;SDS011;9867;48.094;11.478;2023-01-26T10:51:24;16.50;;;11.40;;
19456;SDS011;9867;48.094;11.478;2023-01-26T10:56:46;13.97;;;9.63;;
19456;SDS011;9867;48.094;11.478;2023-01-26T10:59:18;14.73;;;10.60;;
19456;SDS011;9867;48.094;11.478;2023-01-26T11:01:51;12.67;;;10.10;;
19456;SDS011;9867;48.094;11.478;2023-01-26T11:04:20;15.20;;;10.50;;
19456;SDS011;9867;48.094;11.478;2023-01-26T11:06:48;13.60;;;9.53;;
19456;SDS011;9867;48.094;11.478;2023-01-26T11:09:18;13.60;;;9.83;;
19456;SDS011;9867;48.094;11.478;2023-01-26T11:11:59;16.70;;;11.90;;
19456;SDS011;9867;48.094;11.478;2023-01-26T11:14:27;13.57;;;9.87;;
19456;SDS011;9867;48.094;11.478;2023-01-26T11:17:08;15.33;;;10.27;;
19456;SDS011;9867;48.094;11.478;2023-01-26T11:19:46;15.20;;;10.60;;
19456;SDS011;9867;48.094;11.478;2023-01-26T11:22:23;14.07;;;10.73;;
19456;SDS011;9867;48.094;11.478;2023-01-26T11:24:59;12.50;;;9.83;;
19456;SDS011;9867;48.094;11.478;2023-01-26T11:27:41;19.53;;;10.40;;
19456;SDS011;9867;48.094;11.478;2023-01-26T11:30:32;13.47;;;9.37;;
19456;SDS011;9867;48.094;11.478;2023-01-26T11:33:16;13.50;;;9.70;;
19456;SDS011;9867;48.094;11.478;2023-01-26T11:35:55;13.13;;;9.73;;
19456;SDS011;9867;48.094;11.478;2023-01-26T11:38:29;12.43;;;9.00;;
19456;SDS011;9867;48.094;11.478;2023-01-26T11:41:13;11.90;;;8.63;;
19456;SDS011;9867;48.094;11.478;2023-01-26T11:43:56;14.70;;;9.50;;
19456;SDS011;9867;48.094;11.478;2023-01-26T11:49:37;14.40;;;9.90;;
19456;SDS011;9867;48.094;11.478;2023-01-26T11:52:17;12.37;;;9.67;;
19456;SDS011;9867;48.094;11.478;2023-01-26T11:54:57;15.73;;;10.20;;
19456;SDS011;9867;48.094;11.478;2023-01-26T11:57:40;15.00;;;9.90;;
19456;SDS011;9867;48.094;11.478;2023-01-26T12:00:17;11.83;;;8.73;;
19456;SDS011;9867;48.094;11.478;2023-01-26T12:02:58;13.90;;;10.00;;
19456;SDS011;9867;48.094;11.478;2023-01-26T12:05:29;14.27;;;9.30;;
19456;SDS011;9867;48.094;11.478;2023-01-26T12:08:03;13.63;;;9.80;;
19456;SDS011;9867;48.094;11.478;2023-01-26T12:10:38;13.93;;;9.73;;
19456;SDS011;9867;48.094;11.478;2023-01-26T12:13:10;14.13;;;10.53;;
19456;SDS011;9867;48.094;11.478;2023-01-26T12:15:46;13.73;;;10.03;;
19456;SDS011;9867;48.094;11.478;2023-01-26T12:18:20;13.10;;;10.00;;
19456;SDS011;9867;48.094;11.478;2023-01-26T12:20:57;13.73;;;9.97;;
19456;SDS011;9867;48.094;11.478;2023-01-26T12:23:30;16.13;;;10.33;;
19456;SDS011;9867;48.094;11.478;2023-01-26T12:26:04;12.50;;;9.37;;
19456;SDS011;9867;48.094;11.478;2023-01-26T12:28:36;12.30;;;9.40;;
19456;SDS011;9867;48.094;11.478;2023-01-26T12:31:10;13.63;;;9.43;;
19456;SDS011;9867;48.094;11.478;2023-01-26T12:33:42;13.40;;;9.60;;
19456;SDS011;9867;48.094;11.478;2023-01-26T12:36:20;11.33;;;9.50;;
19456;SDS011;9867;48.094;11.478;2023-01-26T12:38:57;11.37;;;9.03;;
19456;SDS011;9867;48.094;11.478;2023-01-26T12:41:37;11.43;;;8.43;;
19456;SDS011;9867;48.094;11.478;2023-01-26T12:44:25;11.60;;;8.50;;
19456;SDS011;9867;48.094;11.478;2023-01-26T12:47:04;10.37;;;8.60;;
19456;SDS011;9867;48.094;11.478;2023-01-26T12:49:39;12.30;;;8.87;;
19456;SDS011;9867;48.094;11.478;2023-01-26T12:52:12;11.57;;;8.80;;
19456;SDS011;9867;48.094;11.478;2023-01-26T12:54:43;12.43;;;9.43;;
19456;SDS011;9867;48.094;11.478;2023-01-26T12:57:15;11.93;;;9.20;;
19456;SDS011;9867;48.094;11.478;2023-01-26T12:59:46;15.23;;;9.17;;
19456;SDS011;9867;48.094;11.478;2023-01-26T13:02:18;10.43;;;8.67;;
19456;SDS011;9867;48.094;11.478;2023-01-26T13:04:51;11.53;;;9.30;;
19456;SDS011;9867;48.094;11.478;2023-01-26T13:07:26;12.53;;;9.37;;
19456;SDS011;9867;48.094;11.478;2023-01-26T13:10:08;14.00;;;8.90;;
19456;SDS011;9867;48.094;11.478;2023-01-26T13:12:46;11.70;;;9.27;;
19456;SDS011;9867;48.094;11.478;2023-01-26T13:15:14;12.97;;;9.70;;
19456;SDS011;9867;48.094;11.478;2023-01-26T13:20:40;12.37;;;9.23;;
19456;SDS011;9867;48.094;11.478;2023-01-26T13:26:12;15.30;;;10.00;;
19456;SDS011;9867;48.094;11.478;2023-01-26T13:28:40;12.50;;;9.70;;
19456;SDS011;9867;48.094;11.478;2023-01-26T13:31:07;12.10;;;9.30;;
19456;SDS011;9867;48.094;11.478;2023-01-26T13:33:35;15.17;;;10.97;;
19456;SDS011;9867;48.094;11.478;2023-01-26T13:36:02;13.97;;;9.80;;
19456;SDS011;9867;48.094;11.478;2023-01-26T13:38:36;14.00;;;10.00;;
19456;SDS011;9867;48.094;11.478;2023-01-26T13:41:06;14.60;;;10.63;;
19456;SDS011;9867;48.094;11.478;2023-01-26T13:43:39;16.30;;;10.87;;
19456;SDS011;9867;48.094;11.478;2023-01-26T13:46:11;15.03;;;10.23;;
19456;SDS011;9867;48.094;11.478;2023-01-26T13:48:44;14.53;;;10.20;;
19456;SDS011;9867;48.094;11.478;2023-01-26T13:51:16;14.03;;;10.20;;
19456;SDS011;9867;48.094;11.478;2023-01-26T13:53:50;13.23;;;9.37;;
19456;SDS011;9867;48.094;11.478;2023-01-26T13:56:21;12.53;;;9.70;;
19456;SDS011;9867;48.094;11.478;2023-01-26T13:58:51;16.63;;;10.50;;
19456;SDS011;9867;48.094;11.478;2023-01-26T14:01:18;16.87;;;11.07;;
19456;SDS011;9867;48.094;11.478;2023-01-26T14:03:45;15.43;;;10.27;;
19456;SDS011;9867;48.094;11.478;2023-01-26T14:06:13;13.73;;;10.13;;
19456;SDS011;9867;48.094;11.478;2023-01-26T14:08:43;14.10;;;10.43;;
19456;SDS011;9867;48.094;11.478;2023-01-26T14:11:15;13.33;;;9.80;;
19456;SDS011;9867;48.094;11.478;2023-01-26T14:13:46;14.53;;;9.93;;
19456;SDS011;9867;48.094;11.478;2023-01-26T14:16:20;13.43;;;9.37;;
19456;SDS011;9867;48.094;11.478;2023-01-26T14:18:51;13.00;;;9.93;;
19456;SDS011;9867;48.094;11.478;2023-01-26T14:21:30;14.97;;;9.73;;
19456;SDS011;9867;48.094;11.478;2023-01-26T14:23:57;14.60;;;10.67;;
19456;SDS011;9867;48.094;11.478;2023-01-26T14:26:27;15.70;;;10.40;;
19456;SDS011;9867;48.094;11.478;2023-01-26T14:28:56;15.20;;;10.50;;
19456;SDS011;9867;48.094;11.478;2023-01-26T14:31:25;15.43;;;10.37;;
19456;SDS011;9867;48.094;11.478;2023-01-26T14:33:54;14.63;;;11.33;;
19456;SDS011;9867;48.094;11.478;2023-01-26T14:36:24;16.80;;;10.23;;
19456;SDS011;9867;48.094;11.478;2023-01-26T14:38:52;14.17;;;10.43;;
19456;SDS011;9867;48.094;11.478;2023-01-26T14:41:20;14.57;;;10.43;;
19456;SDS011;9867;48.094;11.478;2023-01-26T14:43:49;14.67;;;10.43;;
19456;SDS011;9867;48.094;11.478;2023-01-26T14:46:20;17.07;;;10.77;;
19456;SDS011;9867;48.094;11.478;2023-01-26T14:48:53;15.80;;;10.83;;
19456;SDS011;9867;48.094;11.478;2023-01-26T14:51:24;14.17;;;10.23;;
19456;SDS011;9867;48.094;11.478;2023-01-26T14:53:53;16.30;;;10.97;;
19456;SDS011;9867;48.094;11.478;2023-01-26T14:56:24;15.30;;;11.10;;
19456;SDS011;9867;48.094;11.478;2023-01-26T14:58:57;13.90;;;10.07;;
19456;SDS011;9867;48.094;11.478;2023-01-26T15:01:25;16.03;;;10.70;;
19456;SDS011;9867;48.094;11.478;2023-01-26T15:03:57;17.53;;;12.07;;
19456;SDS011;9867;48.094;11.478;2023-01-26T15:06:26;15.67;;;11.47;;
19456;SDS011;9867;48.094;11.478;2023-01-26T15:08:55;18.17;;;13.07;;